createdAt,value
2018-07-23T00:01:06.422Z,19.40
2018-07-23T00:03:33.115Z,19.40
2018-07-23T00:05:59.080Z,19.30
2018-07-23T00:08:25.036Z,19.30
2018-07-23T00:10:50.984Z,19.20
2018-07-23T00:13:16.911Z,19.10
2018-07-23T00:15:42.859Z,19.00
2018-07-23T00:18:08.807Z,18.90
2018-07-23T00:20:34.764Z,18.90
2018-07-23T00:23:00.701Z,18.80
2018-07-23T00:25:26.663Z,18.70
2018-07-23T00:27:52.634Z,18.70
2018-07-23T00:30:18.570Z,18.60
2018-07-23T00:32:44.526Z,18.60
2018-07-23T00:35:10.456Z,18.60
2018-07-23T00:37:36.401Z,18.50
2018-07-23T00:40:02.333Z,18.40
2018-07-23T00:42:28.273Z,18.40
2018-07-23T00:44:54.207Z,18.30
2018-07-23T00:47:20.900Z,18.30
2018-07-23T00:49:46.832Z,18.20
2018-07-23T00:52:12.762Z,18.20
2018-07-23T00:54:38.718Z,18.10
2018-07-23T00:57:04.639Z,18.10
2018-07-23T00:59:31.357Z,17.90
2018-07-23T01:01:57.288Z,17.90
2018-07-23T01:04:23.269Z,17.90
2018-07-23T01:06:49.247Z,17.80
2018-07-23T01:09:15.931Z,17.60
2018-07-23T01:11:41.860Z,17.60
2018-07-23T01:14:07.796Z,17.60
2018-07-23T01:16:33.742Z,17.50
2018-07-23T01:18:59.658Z,17.50
2018-07-23T01:21:25.615Z,17.40
2018-07-23T01:23:51.557Z,17.40
2018-07-23T01:26:17.495Z,17.40
2018-07-23T01:28:43.439Z,17.40
2018-07-23T01:31:09.402Z,17.30
2018-07-23T01:33:36.102Z,17.30
2018-07-23T01:36:02.078Z,17.30
2018-07-23T01:38:28.010Z,17.30
2018-07-23T01:40:53.936Z,17.30
2018-07-23T01:43:19.894Z,17.20
2018-07-23T01:45:45.833Z,17.30
2018-07-23T01:48:12.529Z,17.30
2018-07-23T01:50:38.771Z,17.30
2018-07-23T01:53:04.734Z,17.30
2018-07-23T01:55:31.396Z,17.20
2018-07-23T01:57:57.320Z,17.20
2018-07-23T02:00:23.270Z,17.10
2018-07-23T02:02:49.219Z,17.00
2018-07-23T02:05:15.173Z,17.00
2018-07-23T02:07:41.106Z,17.00
2018-07-23T02:10:07.048Z,17.00
2018-07-23T02:12:33.007Z,17.00
2018-07-23T02:14:58.957Z,17.00
2018-07-23T02:17:24.906Z,17.00
2018-07-23T02:19:50.849Z,17.00
2018-07-23T02:22:17.552Z,17.00
2018-07-23T02:24:43.475Z,17.00
2018-07-23T02:27:10.157Z,16.90
2018-07-23T02:29:36.091Z,16.90
2018-07-23T02:32:02.047Z,16.90
2018-07-23T02:34:28.709Z,16.80
2018-07-23T02:36:54.637Z,16.80
2018-07-23T02:39:20.577Z,16.80
2018-07-23T02:41:46.504Z,16.70
2018-07-23T02:44:12.465Z,16.70
2018-07-23T02:46:38.375Z,16.70
2018-07-23T02:49:04.328Z,16.60
2018-07-23T02:51:30.261Z,16.50
2018-07-23T02:53:56.201Z,16.50
2018-07-23T02:56:22.140Z,16.50
2018-07-23T02:58:48.130Z,16.50
2018-07-23T03:01:14.066Z,16.50
2018-07-23T03:03:40.002Z,16.50
2018-07-23T03:06:05.958Z,16.50
2018-07-23T03:08:32.645Z,16.50
2018-07-23T03:10:58.625Z,16.40
2018-07-23T03:13:25.308Z,16.40
2018-07-23T03:15:51.262Z,16.40
2018-07-23T03:18:17.222Z,16.40
2018-07-23T03:20:43.874Z,16.40
2018-07-23T03:23:09.819Z,16.40
2018-07-23T03:25:35.737Z,16.40
2018-07-23T03:28:01.693Z,16.40
2018-07-23T03:30:27.625Z,16.30
2018-07-23T03:32:53.583Z,16.30
2018-07-23T03:35:19.525Z,16.30
2018-07-23T03:37:45.472Z,16.30
2018-07-23T03:40:11.420Z,16.20
2018-07-23T03:42:37.373Z,16.20
2018-07-23T03:45:03.322Z,16.20
2018-07-23T03:47:29.247Z,16.20
2018-07-23T03:49:55.188Z,16.20
2018-07-23T03:52:21.119Z,16.20
2018-07-23T03:54:47.083Z,16.20
2018-07-23T03:57:13.024Z,16.30
2018-07-23T03:59:38.967Z,16.30
2018-07-23T04:02:04.910Z,16.30
2018-07-23T04:04:30.836Z,16.20
2018-07-23T04:06:56.827Z,16.30
2018-07-23T04:09:22.780Z,16.30
2018-07-23T04:11:49.473Z,16.20
2018-07-23T04:14:15.443Z,16.20
2018-07-23T04:16:41.405Z,16.20
2018-07-23T04:19:08.116Z,16.30
2018-07-23T04:21:34.795Z,16.30
2018-07-23T04:24:00.787Z,16.30
2018-07-23T04:26:27.490Z,16.40
2018-07-23T04:28:54.201Z,16.40
2018-07-23T04:31:20.152Z,16.40
2018-07-23T04:33:46.101Z,16.50
2018-07-23T04:36:12.772Z,16.60
2018-07-23T04:38:38.766Z,16.60
2018-07-23T04:41:04.738Z,16.60
2018-07-23T04:43:30.703Z,16.80
2018-07-23T04:45:57.384Z,16.90
2018-07-23T04:48:23.327Z,16.90
2018-07-23T04:50:49.285Z,17.00
2018-07-23T04:53:15.956Z,17.00
2018-07-23T04:55:41.905Z,17.00
2018-07-23T04:58:07.869Z,17.00
2018-07-23T05:00:34.586Z,17.10
2018-07-23T05:03:00.523Z,17.10
2018-07-23T05:05:26.485Z,17.20
2018-07-23T05:07:52.427Z,17.30
2018-07-23T05:10:18.413Z,17.30
2018-07-23T05:12:45.092Z,17.40
2018-07-23T05:15:11.071Z,17.40
2018-07-23T05:17:37.759Z,17.70
2018-07-23T05:20:03.697Z,17.70
2018-07-23T05:22:29.695Z,17.80
2018-07-23T05:24:55.637Z,17.90
2018-07-23T05:27:21.584Z,18.00
2018-07-23T05:29:47.516Z,18.20
2018-07-23T05:32:14.233Z,18.30
2018-07-23T05:34:40.182Z,18.30
2018-07-23T05:37:06.855Z,18.50
2018-07-23T05:39:32.803Z,18.50
2018-07-23T05:41:58.732Z,18.50
2018-07-23T05:44:24.695Z,18.60
2018-07-23T05:46:50.638Z,18.80
2018-07-23T05:49:16.607Z,18.80
2018-07-23T05:51:42.527Z,19.00
2018-07-23T05:54:08.479Z,19.10
2018-07-23T05:56:35.197Z,19.10
2018-07-23T05:59:01.918Z,19.20
2018-07-23T06:01:27.853Z,19.20
2018-07-23T06:03:53.806Z,19.30
2018-07-23T06:06:19.747Z,19.40
2018-07-23T06:08:45.673Z,19.50
2018-07-23T06:11:12.371Z,19.70
2018-07-23T06:13:39.051Z,19.80
2018-07-23T06:16:05.012Z,19.70
2018-07-23T06:18:30.952Z,19.90
2018-07-23T06:20:57.663Z,20.00
2018-07-23T06:23:23.626Z,20.00
2018-07-23T06:25:50.345Z,20.30
2018-07-23T06:28:16.305Z,20.30
2018-07-23T06:30:42.976Z,20.60
2018-07-23T06:33:09.017Z,20.60
2018-07-23T06:35:35.084Z,20.60
2018-07-23T06:38:01.031Z,20.80
2018-07-23T06:40:26.981Z,21.00
2018-07-23T06:42:52.928Z,21.80
2018-07-23T06:45:18.890Z,23.10
2018-07-23T06:47:44.861Z,24.40
2018-07-23T06:50:10.780Z,25.60
2018-07-23T06:52:36.719Z,26.50
2018-07-23T06:55:02.674Z,27.40
2018-07-23T06:57:28.703Z,28.20
2018-07-23T06:59:54.595Z,28.60
2018-07-23T07:02:21.273Z,29.20
2018-07-23T07:04:47.219Z,29.20
2018-07-23T07:07:13.177Z,29.20
2018-07-23T07:09:39.883Z,30.20
2018-07-23T07:12:05.819Z,30.10
2018-07-23T07:14:31.754Z,30.30
2018-07-23T07:16:57.729Z,30.50
2018-07-23T07:19:23.686Z,30.50
2018-07-23T07:21:49.664Z,30.80
2018-07-23T07:24:16.351Z,31.30
2018-07-23T07:26:42.314Z,31.20
2018-07-23T07:29:08.990Z,30.60
2018-07-23T07:31:34.970Z,30.60
2018-07-23T07:34:00.906Z,31.00
2018-07-23T07:36:26.840Z,32.30
2018-07-23T07:38:52.785Z,32.20
2018-07-23T07:41:18.725Z,32.60
2018-07-23T07:43:44.673Z,32.70
2018-07-23T07:46:11.353Z,32.70
2018-07-23T07:48:37.315Z,32.70
2018-07-23T07:51:03.265Z,33.10
2018-07-23T07:53:30.010Z,33.80
2018-07-23T07:55:55.959Z,33.70
2018-07-23T07:58:21.895Z,33.80
2018-07-23T08:00:47.859Z,34.00
2018-07-23T08:03:14.529Z,34.00
2018-07-23T08:05:40.480Z,34.00
2018-07-23T08:08:06.414Z,34.00
2018-07-23T08:10:32.378Z,33.90
2018-07-23T08:12:59.040Z,33.00
2018-07-23T08:15:25.000Z,32.90
2018-07-23T08:17:51.065Z,32.50
2018-07-23T08:20:16.966Z,33.00
2018-07-23T08:22:42.931Z,33.30
2018-07-23T08:25:08.899Z,33.80
2018-07-23T08:27:34.842Z,32.90
2018-07-23T08:30:01.528Z,33.00
2018-07-23T08:32:27.544Z,33.00
2018-07-23T08:34:53.468Z,33.30
2018-07-23T08:37:19.422Z,33.80
2018-07-23T08:39:45.377Z,33.90
2018-07-23T08:42:12.038Z,33.20
2018-07-23T08:44:38.001Z,33.20
2018-07-23T08:47:03.949Z,33.50
2018-07-23T08:49:29.903Z,33.70
2018-07-23T08:51:55.853Z,34.10
2018-07-23T08:54:21.808Z,34.70
2018-07-23T08:56:47.742Z,34.50
2018-07-23T08:59:14.433Z,33.70
2018-07-23T09:01:40.381Z,33.70
2018-07-23T09:04:06.326Z,35.00
2018-07-23T09:06:33.031Z,35.20
2018-07-23T09:08:58.970Z,35.20
2018-07-23T09:11:24.935Z,35.60
2018-07-23T09:13:50.870Z,35.70
2018-07-23T09:16:16.798Z,35.80
2018-07-23T09:18:42.768Z,35.80
2018-07-23T09:21:08.706Z,35.80
2018-07-23T09:23:35.408Z,36.60
2018-07-23T09:26:01.333Z,36.60
2018-07-23T09:28:27.283Z,36.90
2018-07-23T09:30:53.963Z,36.50
2018-07-23T09:33:19.941Z,36.50
2018-07-23T09:35:46.654Z,36.30
2018-07-23T09:38:12.593Z,36.30
2018-07-23T09:40:38.563Z,36.00
2018-07-23T09:43:04.523Z,36.40
2018-07-23T09:45:30.482Z,35.70
2018-07-23T09:47:56.418Z,35.50
2018-07-23T09:50:22.375Z,35.50
2018-07-23T09:52:48.348Z,34.60
2018-07-23T09:55:14.281Z,34.80
2018-07-23T09:57:40.209Z,34.90
2018-07-23T10:00:06.891Z,34.90
2018-07-23T10:02:32.838Z,35.00
2018-07-23T10:04:58.767Z,35.20
2018-07-23T10:07:25.476Z,35.00
2018-07-23T10:09:51.426Z,35.00
2018-07-23T10:12:17.371Z,34.30
2018-07-23T10:14:43.311Z,33.70
2018-07-23T10:17:09.241Z,32.80
2018-07-23T10:19:35.174Z,32.30
2018-07-23T10:22:01.156Z,31.70
2018-07-23T10:24:27.837Z,31.80
2018-07-23T10:26:53.763Z,31.80
2018-07-23T10:29:19.717Z,31.10
2018-07-23T10:31:45.653Z,30.30
2018-07-23T10:34:12.349Z,30.40
2018-07-23T10:36:38.306Z,30.40
2018-07-23T10:39:05.011Z,30.60
2018-07-23T10:41:30.931Z,30.60
2018-07-23T10:43:56.879Z,30.20
2018-07-23T10:46:22.795Z,30.00
2018-07-23T10:48:48.801Z,30.30
2018-07-23T10:51:14.739Z,30.30
2018-07-23T10:53:40.680Z,30.60
2018-07-23T10:56:07.409Z,31.20
2018-07-23T10:58:33.334Z,31.10
2018-07-23T11:01:00.049Z,31.20
2018-07-23T11:03:25.995Z,31.20
2018-07-23T11:05:51.937Z,31.40
2018-07-23T11:08:18.629Z,31.50
2018-07-23T11:10:44.606Z,31.50
2018-07-23T11:13:10.556Z,31.20
2018-07-23T11:15:36.513Z,30.60
2018-07-23T11:18:02.482Z,30.60
2018-07-23T11:20:28.407Z,30.80
2018-07-23T11:22:54.385Z,30.70
2018-07-23T11:25:38.979Z,30.40
2018-07-23T11:27:47.040Z,30.70
2018-07-23T11:30:12.989Z,30.70
2018-07-23T11:32:39.720Z,31.00
2018-07-23T11:35:05.650Z,31.00
2018-07-23T11:37:31.617Z,30.70
2018-07-23T11:39:57.564Z,31.00
2018-07-23T11:42:23.506Z,31.10
2018-07-23T11:44:49.467Z,31.30
2018-07-23T11:47:15.437Z,31.20
2018-07-23T11:49:41.406Z,31.00
2018-07-23T11:52:14.355Z,30.70
2018-07-23T11:54:33.333Z,30.60
2018-07-23T11:57:00.101Z,30.80
2018-07-23T11:59:26.777Z,30.40
2018-07-23T12:01:52.738Z,30.30
2018-07-23T12:04:18.707Z,30.00
2018-07-23T12:06:44.635Z,30.00
2018-07-23T12:09:11.318Z,29.90
2018-07-23T12:11:38.027Z,29.80
2018-07-23T12:14:03.957Z,29.80
2018-07-23T12:16:29.909Z,29.60
2018-07-23T12:18:56.606Z,29.20
2018-07-23T12:21:22.551Z,29.20
2018-07-23T12:23:48.494Z,29.20
2018-07-23T12:26:15.176Z,29.50
2018-07-23T12:28:41.133Z,29.40
2018-07-23T12:31:07.071Z,29.50
2018-07-23T12:33:33.041Z,29.70
2018-07-23T12:35:58.977Z,29.70
2018-07-23T12:38:24.961Z,29.80
2018-07-23T12:40:50.900Z,29.90
2018-07-23T12:43:16.847Z,29.80
2018-07-23T12:45:42.771Z,29.90
2018-07-23T12:48:08.742Z,29.90
2018-07-23T12:50:35.398Z,29.70
2018-07-23T12:53:01.320Z,29.70
2018-07-23T12:55:27.263Z,29.80
2018-07-23T12:57:53.211Z,29.80
2018-07-23T13:00:19.186Z,29.80
2018-07-23T13:02:45.121Z,29.50
2018-07-23T13:05:11.080Z,29.30
2018-07-23T13:07:37.004Z,29.50
2018-07-23T13:10:03.111Z,29.50
2018-07-23T13:12:29.086Z,29.20
2018-07-23T13:14:55.813Z,29.00
2018-07-23T13:17:21.706Z,29.00
2018-07-23T13:19:47.639Z,29.00
2018-07-23T13:22:13.575Z,29.20
2018-07-23T13:24:40.253Z,29.20
2018-07-23T13:27:06.198Z,29.20
2018-07-23T13:29:32.125Z,29.20
2018-07-23T13:31:58.100Z,29.10
2018-07-23T13:34:24.035Z,29.10
2018-07-23T13:36:49.968Z,29.00
2018-07-23T13:39:15.958Z,28.90
2018-07-23T13:41:42.641Z,28.90
2018-07-23T13:44:08.607Z,28.90
2018-07-23T13:46:34.548Z,28.90
2018-07-23T13:49:00.493Z,28.80
2018-07-23T13:51:26.455Z,28.80
2018-07-23T13:53:52.401Z,28.70
2018-07-23T13:56:18.328Z,28.70
2018-07-23T13:58:45.021Z,28.80
2018-07-23T14:01:11.007Z,28.80
2018-07-23T14:03:36.924Z,28.70
2018-07-23T14:06:03.619Z,28.80
2018-07-23T14:08:29.557Z,28.80
2018-07-23T14:10:56.333Z,28.80
2018-07-23T14:13:22.505Z,28.80
2018-07-23T14:15:48.631Z,28.70
2018-07-23T14:18:14.569Z,28.60
2018-07-23T14:20:40.523Z,28.70
2018-07-23T14:23:07.236Z,28.40
2018-07-23T14:25:33.206Z,28.30
2018-07-23T14:27:59.175Z,28.40
2018-07-23T14:30:25.109Z,28.40
2018-07-23T14:32:51.074Z,28.40
2018-07-23T14:35:17.009Z,28.40
2018-07-23T14:37:50.087Z,28.40
2018-07-23T14:40:16.037Z,28.40
2018-07-23T14:42:41.986Z,28.30
2018-07-23T14:45:07.948Z,28.50
2018-07-23T14:47:33.919Z,28.40
2018-07-23T14:49:59.877Z,28.50
2018-07-23T14:52:26.553Z,28.50
2018-07-23T14:54:52.517Z,28.40
2018-07-23T14:57:18.459Z,28.40
2018-07-23T14:59:44.435Z,28.40
2018-07-23T15:02:10.434Z,28.40
2018-07-23T15:04:36.902Z,28.40
2018-07-23T15:07:03.635Z,28.40
2018-07-23T15:09:29.574Z,28.40
2018-07-23T15:11:55.558Z,28.40
2018-07-23T15:14:21.526Z,28.30
2018-07-23T15:16:48.241Z,28.30
2018-07-23T15:19:14.176Z,28.30
2018-07-23T15:21:40.153Z,28.50
2018-07-23T15:24:06.089Z,28.50
2018-07-23T15:26:32.048Z,28.50
2018-07-23T15:28:58.008Z,28.50
2018-07-23T15:31:23.950Z,28.40
2018-07-23T15:33:49.904Z,28.40
2018-07-23T15:36:15.842Z,28.50
2018-07-23T15:38:41.893Z,28.40
2018-07-23T15:41:08.672Z,28.40
2018-07-23T15:43:34.643Z,28.40
2018-07-23T15:46:01.409Z,28.30
2018-07-23T15:48:27.261Z,28.30
2018-07-23T15:50:53.220Z,28.40
2018-07-23T15:53:19.916Z,28.40
2018-07-23T15:55:45.887Z,28.40
2018-07-23T15:58:12.565Z,28.30
2018-07-23T16:00:38.521Z,28.30
2018-07-23T16:03:04.493Z,28.40
2018-07-23T16:05:30.467Z,28.30
2018-07-23T16:07:56.410Z,28.30
2018-07-23T16:10:23.110Z,28.30
2018-07-23T16:12:49.077Z,28.30
2018-07-23T16:15:15.776Z,28.30
2018-07-23T16:17:41.766Z,28.30
2018-07-23T16:20:07.746Z,28.40
2018-07-23T16:22:33.691Z,28.40
2018-07-23T16:24:59.605Z,28.40
2018-07-23T16:27:25.730Z,28.30
2018-07-23T16:29:51.772Z,28.30
2018-07-23T16:32:18.446Z,28.20
2018-07-23T16:34:44.388Z,28.30
2018-07-23T16:37:10.319Z,28.20
2018-07-23T16:39:36.274Z,28.20
2018-07-23T16:42:02.961Z,28.10
2018-07-23T16:44:28.931Z,28.10
2018-07-23T16:46:55.635Z,28.20
2018-07-23T16:49:22.340Z,28.10
2018-07-23T16:51:48.266Z,28.10
2018-07-23T16:54:14.246Z,28.10
2018-07-23T16:56:40.181Z,28.10
2018-07-23T16:59:06.855Z,28.10
2018-07-23T17:01:32.820Z,28.10
2018-07-23T17:03:58.755Z,28.00
2018-07-23T17:06:25.475Z,27.90
2018-07-23T17:08:51.418Z,27.90
2018-07-23T17:11:18.103Z,27.90
2018-07-23T17:13:44.055Z,27.90
2018-07-23T17:16:10.057Z,27.80
2018-07-23T17:18:36.070Z,27.90
2018-07-23T17:21:02.113Z,27.80
2018-07-23T17:23:28.091Z,27.80
2018-07-23T17:25:54.769Z,27.80
2018-07-23T17:28:20.724Z,27.70
2018-07-23T17:30:46.686Z,27.70
2018-07-23T17:33:12.648Z,27.70
2018-07-23T17:35:38.682Z,27.70
2018-07-23T17:38:04.597Z,27.60
2018-07-23T17:40:30.523Z,27.60
2018-07-23T17:42:56.476Z,27.60
2018-07-23T17:45:23.187Z,27.50
2018-07-23T17:47:49.124Z,27.50
2018-07-23T17:50:15.866Z,27.50
2018-07-23T17:52:41.874Z,27.50
2018-07-23T17:55:08.664Z,27.40
2018-07-23T17:57:34.550Z,27.40
2018-07-23T18:00:00.516Z,27.30
2018-07-23T18:02:26.451Z,27.30
2018-07-23T18:04:52.376Z,27.20
2018-07-23T18:07:18.344Z,27.20
2018-07-23T18:09:44.267Z,27.10
2018-07-23T18:12:10.252Z,27.00
2018-07-23T18:14:36.187Z,27.00
2018-07-23T18:17:02.155Z,26.90
2018-07-23T18:19:28.822Z,26.80
2018-07-23T18:21:54.784Z,26.80
2018-07-23T18:24:20.722Z,26.80
2018-07-23T18:26:46.686Z,26.70
2018-07-23T18:29:12.661Z,26.60
2018-07-23T18:31:39.360Z,26.40
2018-07-23T18:34:05.312Z,26.40
2018-07-23T18:36:31.231Z,26.20
2018-07-23T18:38:57.220Z,26.10
2018-07-23T18:41:23.171Z,26.10
2018-07-23T18:43:49.117Z,26.00
2018-07-23T18:46:15.076Z,25.90
2018-07-23T18:48:41.000Z,25.80
2018-07-23T18:51:06.954Z,25.80
2018-07-23T18:53:32.877Z,25.70
2018-07-23T18:55:58.807Z,25.60
2018-07-23T18:58:24.736Z,25.50
2018-07-23T19:00:50.680Z,25.50
2018-07-23T19:03:17.373Z,25.40
2018-07-23T19:05:43.338Z,25.30
2018-07-23T19:08:13.047Z,25.30
2018-07-23T19:10:40.317Z,25.20
2018-07-23T19:13:07.138Z,25.10
2018-07-23T19:15:33.057Z,25.10
2018-07-23T19:17:59.755Z,25.00
2018-07-23T19:20:25.894Z,25.00
2018-07-23T19:22:51.717Z,25.00
2018-07-23T19:25:17.674Z,24.90
2018-07-23T19:27:44.376Z,24.80
2018-07-23T19:30:10.314Z,24.70
2018-07-23T19:32:36.287Z,24.70
2018-07-23T19:35:02.273Z,24.60
2018-07-23T19:37:28.988Z,24.40
2018-07-23T19:39:54.933Z,24.40
2018-07-23T19:42:20.998Z,24.40
2018-07-23T19:44:46.912Z,24.30
2018-07-23T19:47:13.597Z,24.20
2018-07-23T19:49:39.550Z,24.20
2018-07-23T19:52:05.472Z,24.10
2018-07-23T19:54:32.164Z,23.90
2018-07-23T19:56:58.078Z,23.90
2018-07-23T19:59:24.063Z,23.80
2018-07-23T20:01:50.055Z,23.80
2018-07-23T20:04:15.987Z,23.70
2018-07-23T20:06:41.978Z,23.60
2018-07-23T20:09:07.963Z,23.60
2018-07-23T20:11:34.704Z,23.40
2018-07-23T20:14:01.363Z,23.30
2018-07-23T20:16:27.335Z,23.30
2018-07-23T20:18:53.302Z,23.20
2018-07-23T20:21:19.253Z,23.10
2018-07-23T20:23:45.241Z,23.10
2018-07-23T20:26:11.922Z,23.00
2018-07-23T20:28:37.887Z,22.90
2018-07-23T20:31:04.556Z,22.90
2018-07-23T20:33:30.552Z,22.90
2018-07-23T20:35:57.306Z,22.80
2018-07-23T20:38:23.572Z,22.80
2018-07-23T20:40:49.516Z,22.70
2018-07-23T20:43:15.456Z,22.70
2018-07-23T20:45:41.466Z,22.70
2018-07-23T20:48:07.395Z,22.50
2018-07-23T20:50:33.373Z,22.50
2018-07-23T20:52:59.393Z,22.40
2018-07-23T20:55:25.367Z,22.40
2018-07-23T20:57:51.324Z,22.40
2018-07-23T21:00:17.283Z,22.40
2018-07-23T21:02:43.268Z,22.40
2018-07-23T21:05:09.375Z,22.20
2018-07-23T21:07:36.073Z,22.20
2018-07-23T21:10:02.002Z,22.10
2018-07-23T21:12:27.984Z,22.10
2018-07-23T21:14:53.940Z,22.00
2018-07-23T21:17:19.944Z,22.00
2018-07-23T21:19:45.975Z,22.00
2018-07-23T21:22:11.897Z,22.10
2018-07-23T21:24:37.944Z,22.00
2018-07-23T21:27:03.912Z,22.00
2018-07-23T21:29:29.894Z,22.00
2018-07-23T21:31:55.889Z,22.00
2018-07-23T21:34:21.861Z,22.00
2018-07-23T21:36:48.605Z,21.90
2018-07-23T21:39:15.327Z,22.00
2018-07-23T21:41:41.296Z,21.90
2018-07-23T21:44:07.242Z,21.90
2018-07-23T21:46:33.219Z,21.80
2018-07-23T21:48:59.914Z,21.70
2018-07-23T21:51:25.859Z,21.70
2018-07-23T21:53:51.848Z,21.70
2018-07-23T21:56:17.857Z,21.60
2018-07-23T21:58:43.813Z,21.60
2018-07-23T22:01:09.770Z,21.50
2018-07-23T22:03:36.437Z,21.50
2018-07-23T22:06:02.384Z,21.40
2018-07-23T22:08:28.319Z,21.50
2018-07-23T22:10:54.301Z,21.40
2018-07-23T22:13:20.275Z,21.30
2018-07-23T22:15:46.235Z,21.30
2018-07-23T22:18:13.167Z,21.20
2018-07-23T22:20:39.858Z,21.20
2018-07-23T22:23:05.877Z,21.20
2018-07-23T22:25:32.603Z,21.10
2018-07-23T22:27:58.514Z,21.10
2018-07-23T22:30:25.207Z,21.10
2018-07-23T22:32:51.163Z,21.10
2018-07-23T22:35:17.827Z,21.10
2018-07-23T22:37:43.756Z,21.10
2018-07-23T22:40:09.701Z,21.10
2018-07-23T22:42:35.855Z,21.00
2018-07-23T22:45:01.980Z,21.00
2018-07-23T22:47:27.901Z,21.00
2018-07-23T22:49:53.854Z,20.90
2018-07-23T22:52:20.540Z,20.70
2018-07-23T22:54:46.492Z,20.70
2018-07-23T22:57:12.436Z,20.60
2018-07-23T22:59:38.401Z,20.60
2018-07-23T23:02:04.354Z,20.70
2018-07-23T23:04:30.310Z,20.70
2018-07-23T23:06:56.985Z,20.60
2018-07-23T23:09:22.962Z,20.60
2018-07-23T23:11:49.636Z,20.60
2018-07-23T23:14:15.625Z,20.60
2018-07-23T23:16:41.658Z,20.60
2018-07-23T23:19:08.327Z,20.50
2018-07-23T23:21:34.395Z,20.40
2018-07-23T23:24:00.319Z,20.40
2018-07-23T23:26:27.018Z,20.30
2018-07-23T23:28:52.945Z,20.30
2018-07-23T23:31:19.086Z,20.40
2018-07-23T23:33:45.011Z,20.40
2018-07-23T23:36:10.928Z,20.40
2018-07-23T23:38:36.891Z,20.40
2018-07-23T23:41:03.570Z,20.40
2018-07-23T23:43:29.531Z,20.40
2018-07-23T23:45:56.219Z,20.40
2018-07-23T23:48:22.239Z,20.30
2018-07-23T23:50:48.214Z,20.40
2018-07-23T23:53:14.276Z,20.30
2018-07-23T23:55:40.224Z,20.30
2018-07-23T23:58:06.212Z,20.30
